sensor_id;sensor_type;location;lat;lon;timestamp;P1;durP1;ratioP1;P2;durP2;ratioP2
27999;SDS011;15328;50.860;10.562;2022-09-20T00:00:28;6.43;;;1.33;;
27999;SDS011;15328;50.860;10.562;2022-09-20T00:05:32;5.35;;;1.25;;
27999;SDS011;15328;50.860;10.562;2022-09-20T00:10:34;7.05;;;1.40;;
27999;SDS011;15328;50.860;10.562;2022-09-20T00:15:41;8.88;;;1.65;;
27999;SDS011;15328;50.860;10.562;2022-09-20T00:20:47;7.50;;;1.30;;
27999;SDS011;15328;50.860;10.562;2022-09-20T00:25:55;6.10;;;1.83;;
27999;SDS011;15328;50.860;10.562;2022-09-20T00:30:57;5.07;;;1.20;;
27999;SDS011;15328;50.860;10.562;2022-09-20T00:35:58;7.00;;;1.48;;
27999;SDS011;15328;50.860;10.562;2022-09-20T00:40:58;7.47;;;1.85;;
27999;SDS011;15328;50.860;10.562;2022-09-20T00:45:58;4.82;;;1.38;;
27999;SDS011;15328;50.860;10.562;2022-09-20T00:51:03;6.35;;;1.38;;
27999;SDS011;15328;50.860;10.562;2022-09-20T00:56:09;7.77;;;1.60;;
27999;SDS011;15328;50.860;10.562;2022-09-20T01:01:16;5.93;;;1.40;;
27999;SDS011;15328;50.860;10.562;2022-09-20T01:06:17;7.95;;;1.67;;
27999;SDS011;15328;50.860;10.562;2022-09-20T01:11:18;6.25;;;1.33;;
27999;SDS011;15328;50.860;10.562;2022-09-20T01:16:18;7.05;;;1.40;;
27999;SDS011;15328;50.860;10.562;2022-09-20T01:21:20;10.18;;;1.63;;
27999;SDS011;15328;50.860;10.562;2022-09-20T01:31:41;8.48;;;1.88;;
27999;SDS011;15328;50.860;10.562;2022-09-20T01:36:49;10.43;;;1.92;;
27999;SDS011;15328;50.860;10.562;2022-09-20T01:41:57;8.05;;;1.92;;
27999;SDS011;15328;50.860;10.562;2022-09-20T02:03:44;6.00;;;1.60;;
27999;SDS011;15328;50.860;10.562;2022-09-20T02:35:48;2.47;;;0.90;;
27999;SDS011;15328;50.860;10.562;2022-09-20T02:41:03;3.13;;;1.17;;
27999;SDS011;15328;50.860;10.562;2022-09-20T02:51:56;4.15;;;1.20;;
27999;SDS011;15328;50.860;10.562;2022-09-20T02:57:02;4.05;;;1.17;;
27999;SDS011;15328;50.860;10.562;2022-09-20T03:18:13;8.65;;;2.78;;
27999;SDS011;15328;50.860;10.562;2022-09-20T03:39:19;7.00;;;1.35;;
27999;SDS011;15328;50.860;10.562;2022-09-20T04:00:35;5.47;;;1.20;;
27999;SDS011;15328;50.860;10.562;2022-09-20T04:05:50;4.38;;;1.30;;
27999;SDS011;15328;50.860;10.562;2022-09-20T04:16:17;9.50;;;1.90;;
27999;SDS011;15328;50.860;10.562;2022-09-20T04:26:46;5.82;;;1.30;;
27999;SDS011;15328;50.860;10.562;2022-09-20T04:37:23;5.00;;;1.90;;
27999;SDS011;15328;50.860;10.562;2022-09-20T04:47:55;5.13;;;1.38;;
27999;SDS011;15328;50.860;10.562;2022-09-20T04:53:28;5.45;;;1.45;;
27999;SDS011;15328;50.860;10.562;2022-09-20T05:30:48;5.97;;;1.70;;
27999;SDS011;15328;50.860;10.562;2022-09-20T05:36:02;6.35;;;1.70;;
27999;SDS011;15328;50.860;10.562;2022-09-20T05:41:10;4.05;;;1.20;;
27999;SDS011;15328;50.860;10.562;2022-09-20T06:03:34;6.68;;;2.10;;
27999;SDS011;15328;50.860;10.562;2022-09-20T06:19:05;3.28;;;1.10;;
27999;SDS011;15328;50.860;10.562;2022-09-20T06:29:48;3.78;;;1.50;;
27999;SDS011;15328;50.860;10.562;2022-09-20T06:34:53;4.85;;;1.52;;
27999;SDS011;15328;50.860;10.562;2022-09-20T06:39:57;4.57;;;1.50;;
27999;SDS011;15328;50.860;10.562;2022-09-20T06:45:23;6.03;;;1.48;;
27999;SDS011;15328;50.860;10.562;2022-09-20T06:50:24;5.50;;;1.80;;
27999;SDS011;15328;50.860;10.562;2022-09-20T06:55:25;3.87;;;1.70;;
27999;SDS011;15328;50.860;10.562;2022-09-20T07:00:31;4.15;;;1.30;;
27999;SDS011;15328;50.860;10.562;2022-09-20T07:05:31;4.18;;;1.38;;
27999;SDS011;15328;50.860;10.562;2022-09-20T07:10:32;6.28;;;1.60;;
27999;SDS011;15328;50.860;10.562;2022-09-20T07:15:33;4.65;;;1.55;;
27999;SDS011;15328;50.860;10.562;2022-09-20T07:20:33;7.47;;;1.50;;
27999;SDS011;15328;50.860;10.562;2022-09-20T07:25:34;4.05;;;1.40;;
27999;SDS011;15328;50.860;10.562;2022-09-20T07:30:35;3.22;;;1.00;;
27999;SDS011;15328;50.860;10.562;2022-09-20T07:35:35;2.73;;;1.13;;
27999;SDS011;15328;50.860;10.562;2022-09-20T07:40:36;2.72;;;1.17;;
27999;SDS011;15328;50.860;10.562;2022-09-20T07:45:37;3.80;;;1.10;;
27999;SDS011;15328;50.860;10.562;2022-09-20T07:50:38;4.00;;;1.30;;
27999;SDS011;15328;50.860;10.562;2022-09-20T07:55:38;4.13;;;1.20;;
27999;SDS011;15328;50.860;10.562;2022-09-20T08:00:39;3.70;;;0.90;;
27999;SDS011;15328;50.860;10.562;2022-09-20T08:05:39;3.57;;;1.23;;
27999;SDS011;15328;50.860;10.562;2022-09-20T08:10:39;5.05;;;1.13;;
27999;SDS011;15328;50.860;10.562;2022-09-20T08:15:40;5.20;;;2.35;;
27999;SDS011;15328;50.860;10.562;2022-09-20T08:20:41;5.80;;;1.48;;
27999;SDS011;15328;50.860;10.562;2022-09-20T08:25:41;3.40;;;1.20;;
27999;SDS011;15328;50.860;10.562;2022-09-20T08:30:41;5.73;;;1.07;;
27999;SDS011;15328;50.860;10.562;2022-09-20T08:35:42;2.77;;;0.80;;
27999;SDS011;15328;50.860;10.562;2022-09-20T08:40:42;3.33;;;1.20;;
27999;SDS011;15328;50.860;10.562;2022-09-20T08:45:43;3.55;;;1.20;;
27999;SDS011;15328;50.860;10.562;2022-09-20T08:50:44;4.72;;;1.85;;
27999;SDS011;15328;50.860;10.562;2022-09-20T08:55:44;2.65;;;1.02;;
27999;SDS011;15328;50.860;10.562;2022-09-20T09:00:45;3.08;;;0.80;;
27999;SDS011;15328;50.860;10.562;2022-09-20T09:05:49;3.70;;;1.00;;
27999;SDS011;15328;50.860;10.562;2022-09-20T09:10:55;3.25;;;1.00;;
27999;SDS011;15328;50.860;10.562;2022-09-20T09:16:13;6.15;;;1.20;;
27999;SDS011;15328;50.860;10.562;2022-09-20T09:21:19;5.55;;;1.20;;
27999;SDS011;15328;50.860;10.562;2022-09-20T09:26:23;5.00;;;1.33;;
27999;SDS011;15328;50.860;10.562;2022-09-20T09:31:24;3.17;;;0.82;;
27999;SDS011;15328;50.860;10.562;2022-09-20T09:36:25;2.97;;;0.82;;
27999;SDS011;15328;50.860;10.562;2022-09-20T09:41:30;2.05;;;0.80;;
27999;SDS011;15328;50.860;10.562;2022-09-20T09:46:34;4.57;;;1.15;;
27999;SDS011;15328;50.860;10.562;2022-09-20T09:51:36;5.10;;;1.30;;
27999;SDS011;15328;50.860;10.562;2022-09-20T09:56:40;2.88;;;1.05;;
27999;SDS011;15328;50.860;10.562;2022-09-20T10:01:53;4.13;;;1.08;;
27999;SDS011;15328;50.860;10.562;2022-09-20T10:17:54;2.35;;;0.80;;
27999;SDS011;15328;50.860;10.562;2022-09-20T10:23:07;3.58;;;0.90;;
27999;SDS011;15328;50.860;10.562;2022-09-20T10:39:09;0.82;;;0.50;;
27999;SDS011;15328;50.860;10.562;2022-09-20T10:44:23;2.00;;;0.80;;
27999;SDS011;15328;50.860;10.562;2022-09-20T10:49:41;3.30;;;0.82;;
27999;SDS011;15328;50.860;10.562;2022-09-20T11:11:09;1.38;;;0.60;;
27999;SDS011;15328;50.860;10.562;2022-09-20T11:21:24;2.00;;;0.50;;
27999;SDS011;15328;50.860;10.562;2022-09-20T11:31:37;2.03;;;0.50;;
27999;SDS011;15328;50.860;10.562;2022-09-20T11:41:58;1.85;;;0.70;;
27999;SDS011;15328;50.860;10.562;2022-09-20T11:47:02;1.05;;;0.50;;
27999;SDS011;15328;50.860;10.562;2022-09-20T11:57:30;1.80;;;0.70;;
27999;SDS011;15328;50.860;10.562;2022-09-20T12:07:43;1.85;;;0.68;;
27999;SDS011;15328;50.860;10.562;2022-09-20T12:12:45;1.55;;;0.50;;
27999;SDS011;15328;50.860;10.562;2022-09-20T12:22:50;0.65;;;0.40;;
27999;SDS011;15328;50.860;10.562;2022-09-20T12:32:54;1.27;;;0.40;;
27999;SDS011;15328;50.860;10.562;2022-09-20T12:37:56;1.35;;;0.47;;
27999;SDS011;15328;50.860;10.562;2022-09-20T12:43:26;1.17;;;0.40;;
27999;SDS011;15328;50.860;10.562;2022-09-20T12:48:32;4.47;;;0.60;;
27999;SDS011;15328;50.860;10.562;2022-09-20T12:53:35;1.23;;;0.60;;
27999;SDS011;15328;50.860;10.562;2022-09-20T12:58:51;2.30;;;0.73;;
27999;SDS011;15328;50.860;10.562;2022-09-20T13:03:57;1.67;;;0.52;;
27999;SDS011;15328;50.860;10.562;2022-09-20T13:09:32;0.88;;;0.40;;
27999;SDS011;15328;50.860;10.562;2022-09-20T13:14:33;1.48;;;0.43;;
27999;SDS011;15328;50.860;10.562;2022-09-20T13:19:34;1.03;;;0.40;;
27999;SDS011;15328;50.860;10.562;2022-09-20T13:24:43;3.03;;;0.70;;
27999;SDS011;15328;50.860;10.562;2022-09-20T13:29:46;3.53;;;0.68;;
27999;SDS011;15328;50.860;10.562;2022-09-20T13:35:03;2.13;;;0.50;;
27999;SDS011;15328;50.860;10.562;2022-09-20T13:40:05;1.40;;;0.40;;
27999;SDS011;15328;50.860;10.562;2022-09-20T13:45:06;4.10;;;0.63;;
27999;SDS011;15328;50.860;10.562;2022-09-20T13:50:19;1.85;;;0.60;;
27999;SDS011;15328;50.860;10.562;2022-09-20T14:00:34;2.17;;;0.50;;
27999;SDS011;15328;50.860;10.562;2022-09-20T14:05:37;2.63;;;0.55;;
27999;SDS011;15328;50.860;10.562;2022-09-20T14:10:37;2.30;;;0.63;;
27999;SDS011;15328;50.860;10.562;2022-09-20T14:15:43;2.28;;;0.63;;
27999;SDS011;15328;50.860;10.562;2022-09-20T14:20:45;3.45;;;0.90;;
27999;SDS011;15328;50.860;10.562;2022-09-20T14:26:21;4.18;;;0.75;;
27999;SDS011;15328;50.860;10.562;2022-09-20T14:31:28;2.20;;;0.70;;
27999;SDS011;15328;50.860;10.562;2022-09-20T14:36:33;2.05;;;0.68;;
27999;SDS011;15328;50.860;10.562;2022-09-20T14:41:37;3.38;;;0.75;;
27999;SDS011;15328;50.860;10.562;2022-09-20T14:46:39;2.42;;;0.63;;
27999;SDS011;15328;50.860;10.562;2022-09-20T14:51:40;4.10;;;0.80;;
27999;SDS011;15328;50.860;10.562;2022-09-20T14:56:44;2.77;;;0.70;;
27999;SDS011;15328;50.860;10.562;2022-09-20T15:07:08;2.47;;;0.60;;
27999;SDS011;15328;50.860;10.562;2022-09-20T15:12:11;1.58;;;0.70;;
27999;SDS011;15328;50.860;10.562;2022-09-20T15:17:14;1.58;;;0.60;;
27999;SDS011;15328;50.860;10.562;2022-09-20T15:22:17;1.40;;;0.57;;
27999;SDS011;15328;50.860;10.562;2022-09-20T15:27:17;1.17;;;0.50;;
27999;SDS011;15328;50.860;10.562;2022-09-20T15:32:17;1.58;;;0.45;;
27999;SDS011;15328;50.860;10.562;2022-09-20T15:37:18;2.33;;;0.90;;
27999;SDS011;15328;50.860;10.562;2022-09-20T15:42:18;2.45;;;0.75;;
27999;SDS011;15328;50.860;10.562;2022-09-20T15:47:20;3.72;;;1.98;;
27999;SDS011;15328;50.860;10.562;2022-09-20T15:52:21;1.40;;;0.80;;
27999;SDS011;15328;50.860;10.562;2022-09-20T15:57:24;1.63;;;0.73;;
27999;SDS011;15328;50.860;10.562;2022-09-20T16:02:26;3.58;;;0.50;;
27999;SDS011;15328;50.860;10.562;2022-09-20T16:07:26;1.27;;;0.50;;
27999;SDS011;15328;50.860;10.562;2022-09-20T16:12:27;1.33;;;0.75;;
27999;SDS011;15328;50.860;10.562;2022-09-20T16:17:27;2.00;;;0.73;;
27999;SDS011;15328;50.860;10.562;2022-09-20T16:22:46;1.75;;;0.70;;
27999;SDS011;15328;50.860;10.562;2022-09-20T16:27:47;1.02;;;0.50;;
27999;SDS011;15328;50.860;10.562;2022-09-20T16:32:47;1.80;;;0.90;;
27999;SDS011;15328;50.860;10.562;2022-09-20T16:37:48;1.55;;;0.68;;
27999;SDS011;15328;50.860;10.562;2022-09-20T16:42:48;1.45;;;0.80;;
27999;SDS011;15328;50.860;10.562;2022-09-20T16:47:48;1.85;;;0.90;;
27999;SDS011;15328;50.860;10.562;2022-09-20T16:52:49;2.53;;;0.90;;
27999;SDS011;15328;50.860;10.562;2022-09-20T16:57:49;1.70;;;0.87;;
27999;SDS011;15328;50.860;10.562;2022-09-20T17:02:50;1.48;;;0.82;;
27999;SDS011;15328;50.860;10.562;2022-09-20T17:07:52;1.83;;;0.77;;
27999;SDS011;15328;50.860;10.562;2022-09-20T17:12:53;1.15;;;0.80;;
27999;SDS011;15328;50.860;10.562;2022-09-20T17:17:56;1.17;;;0.65;;
27999;SDS011;15328;50.860;10.562;2022-09-20T17:22:57;1.23;;;0.60;;
27999;SDS011;15328;50.860;10.562;2022-09-20T17:27:58;1.58;;;0.68;;
27999;SDS011;15328;50.860;10.562;2022-09-20T17:32:58;2.67;;;0.90;;
27999;SDS011;15328;50.860;10.562;2022-09-20T17:37:59;3.20;;;1.60;;
27999;SDS011;15328;50.860;10.562;2022-09-20T17:42:59;2.72;;;1.50;;
27999;SDS011;15328;50.860;10.562;2022-09-20T17:48:00;2.37;;;1.37;;
27999;SDS011;15328;50.860;10.562;2022-09-20T17:53:00;2.53;;;1.10;;
27999;SDS011;15328;50.860;10.562;2022-09-20T17:58:00;1.85;;;1.20;;
27999;SDS011;15328;50.860;10.562;2022-09-20T18:03:01;2.75;;;1.67;;
27999;SDS011;15328;50.860;10.562;2022-09-20T18:08:01;5.35;;;2.95;;
27999;SDS011;15328;50.860;10.562;2022-09-20T18:13:02;4.50;;;2.60;;
27999;SDS011;15328;50.860;10.562;2022-09-20T18:18:03;2.97;;;2.10;;
27999;SDS011;15328;50.860;10.562;2022-09-20T18:23:04;3.20;;;1.70;;
27999;SDS011;15328;50.860;10.562;2022-09-20T18:28:04;2.45;;;1.20;;
27999;SDS011;15328;50.860;10.562;2022-09-20T18:33:05;2.03;;;0.95;;
27999;SDS011;15328;50.860;10.562;2022-09-20T18:38:09;0.75;;;0.50;;
27999;SDS011;15328;50.860;10.562;2022-09-20T18:43:11;1.80;;;0.60;;
27999;SDS011;15328;50.860;10.562;2022-09-20T18:48:14;1.00;;;0.60;;
27999;SDS011;15328;50.860;10.562;2022-09-20T18:53:15;1.45;;;0.60;;
27999;SDS011;15328;50.860;10.562;2022-09-20T18:58:18;1.42;;;1.02;;
27999;SDS011;15328;50.860;10.562;2022-09-20T19:03:24;1.13;;;0.60;;
27999;SDS011;15328;50.860;10.562;2022-09-20T19:08:39;1.02;;;0.63;;
27999;SDS011;15328;50.860;10.562;2022-09-20T19:13:56;1.10;;;0.52;;
27999;SDS011;15328;50.860;10.562;2022-09-20T19:29:47;1.67;;;0.60;;
27999;SDS011;15328;50.860;10.562;2022-09-20T19:34:51;1.85;;;0.60;;
27999;SDS011;15328;50.860;10.562;2022-09-20T19:50:34;1.63;;;0.45;;
27999;SDS011;15328;50.860;10.562;2022-09-20T19:55:54;1.45;;;0.70;;
27999;SDS011;15328;50.860;10.562;2022-09-20T20:00:57;0.98;;;0.50;;
27999;SDS011;15328;50.860;10.562;2022-09-20T20:11:27;1.30;;;0.70;;
27999;SDS011;15328;50.860;10.562;2022-09-20T20:27:13;1.77;;;0.80;;
27999;SDS011;15328;50.860;10.562;2022-09-20T20:32:14;1.93;;;0.60;;
27999;SDS011;15328;50.860;10.562;2022-09-20T20:37:15;1.48;;;0.80;;
27999;SDS011;15328;50.860;10.562;2022-09-20T20:42:17;3.00;;;0.82;;
27999;SDS011;15328;50.860;10.562;2022-09-20T20:47:17;0.60;;;0.50;;
27999;SDS011;15328;50.860;10.562;2022-09-20T20:52:17;1.33;;;0.60;;
27999;SDS011;15328;50.860;10.562;2022-09-20T20:57:18;0.85;;;0.60;;
27999;SDS011;15328;50.860;10.562;2022-09-20T21:02:18;1.33;;;0.53;;
27999;SDS011;15328;50.860;10.562;2022-09-20T21:07:19;2.97;;;1.10;;
27999;SDS011;15328;50.860;10.562;2022-09-20T21:12:20;2.47;;;1.05;;
27999;SDS011;15328;50.860;10.562;2022-09-20T21:17:21;1.93;;;0.80;;
27999;SDS011;15328;50.860;10.562;2022-09-20T21:22:21;2.00;;;0.60;;
27999;SDS011;15328;50.860;10.562;2022-09-20T21:27:21;1.33;;;0.60;;
27999;SDS011;15328;50.860;10.562;2022-09-20T21:32:22;1.10;;;0.50;;
27999;SDS011;15328;50.860;10.562;2022-09-20T21:37:22;2.00;;;0.60;;
27999;SDS011;15328;50.860;10.562;2022-09-20T21:42:22;0.90;;;0.40;;
27999;SDS011;15328;50.860;10.562;2022-09-20T21:47:24;0.63;;;0.40;;
27999;SDS011;15328;50.860;10.562;2022-09-20T21:52:27;1.10;;;0.43;;
27999;SDS011;15328;50.860;10.562;2022-09-20T21:57:28;3.00;;;0.73;;
27999;SDS011;15328;50.860;10.562;2022-09-20T22:02:29;2.47;;;0.40;;
27999;SDS011;15328;50.860;10.562;2022-09-20T22:07:29;0.35;;;0.30;;
27999;SDS011;15328;50.860;10.562;2022-09-20T22:12:29;1.73;;;0.50;;
27999;SDS011;15328;50.860;10.562;2022-09-20T22:17:30;1.00;;;0.50;;
27999;SDS011;15328;50.860;10.562;2022-09-20T22:22:30;1.10;;;0.50;;
27999;SDS011;15328;50.860;10.562;2022-09-20T22:27:30;1.47;;;0.53;;
27999;SDS011;15328;50.860;10.562;2022-09-20T22:32:31;1.30;;;0.47;;
27999;SDS011;15328;50.860;10.562;2022-09-20T22:37:31;0.88;;;0.55;;
27999;SDS011;15328;50.860;10.562;2022-09-20T22:42:31;2.58;;;0.60;;
27999;SDS011;15328;50.860;10.562;2022-09-20T22:47:31;0.73;;;0.40;;
27999;SDS011;15328;50.860;10.562;2022-09-20T22:52:32;1.35;;;0.50;;
27999;SDS011;15328;50.860;10.562;2022-09-20T22:57:32;1.00;;;0.50;;
27999;SDS011;15328;50.860;10.562;2022-09-20T23:02:32;1.67;;;0.52;;
27999;SDS011;15328;50.860;10.562;2022-09-20T23:07:33;1.02;;;0.60;;
27999;SDS011;15328;50.860;10.562;2022-09-20T23:12:33;1.63;;;0.40;;
27999;SDS011;15328;50.860;10.562;2022-09-20T23:17:33;1.13;;;0.50;;
27999;SDS011;15328;50.860;10.562;2022-09-20T23:22:34;0.68;;;0.40;;
27999;SDS011;15328;50.860;10.562;2022-09-20T23:27:34;1.23;;;0.45;;
27999;SDS011;15328;50.860;10.562;2022-09-20T23:32:34;1.08;;;0.55;;
27999;SDS011;15328;50.860;10.562;2022-09-20T23:37:35;1.17;;;0.50;;
27999;SDS011;15328;50.860;10.562;2022-09-20T23:42:35;1.47;;;0.50;;
27999;SDS011;15328;50.860;10.562;2022-09-20T23:47:35;2.15;;;0.52;;
27999;SDS011;15328;50.860;10.562;2022-09-20T23:52:36;1.38;;;0.60;;
27999;SDS011;15328;50.860;10.562;2022-09-20T23:57:36;2.40;;;1.00;;
